Time;durP1;ratioP1;P1;durP2;ratioP2;P2;SDS_P1;SDS_P2;PMS_P1;PMS_P2;Temp;Humidity;BMP_temperature;BMP_pressure;BME280_temperature;BME280_humidity;BME280_pressure;Samples;Min_cycle;Max_cycle;Signal;HPM_P1;HPM_P2
2024/01/14 00:02:20;;;;;;;42.97;21.00;;;;;;;;;;5003319;28;95107;-66
2024/01/14 00:04:46;;;;;;;46.20;20.83;;;;;;;;;;5000378;28;95573;-66
2024/01/14 00:07:13;;;;;;;40.88;20.83;;;;;;;;;;5000520;28;93474;-66
2024/01/14 00:09:39;;;;;;;51.67;22.85;;;;;;;;;;5001785;28;92565;-66
2024/01/14 00:12:06;;;;;;;42.83;22.17;;;;;;;;;;4999870;28;94246;-66
2024/01/14 00:14:32;;;;;;;46.15;22.55;;;;;;;;;;5001217;28;92564;-66
2024/01/14 00:16:58;;;;;;;44.25;21.73;;;;;;;;;;4996079;28;93230;-67
2024/01/14 00:19:25;;;;;;;48.75;23.73;;;;;;;;;;5003296;28;93826;-66
2024/01/14 00:21:52;;;;;;;46.72;22.58;;;;;;;;;;5003099;28;92481;-66
2024/01/14 00:24:18;;;;;;;51.65;23.17;;;;;;;;;;4999782;28;93072;-66
2024/01/14 00:26:44;;;;;;;60.78;24.08;;;;;;;;;;4999910;28;95869;-66
2024/01/14 00:29:11;;;;;;;49.40;24.60;;;;;;;;;;4999870;28;92475;-66
2024/01/14 00:31:37;;;;;;;56.58;28.27;;;;;;;;;;5002371;28;93245;-66
2024/01/14 00:34:04;;;;;;;65.40;29.23;;;;;;;;;;4997059;28;92576;-67
2024/01/14 00:36:30;;;;;;;71.28;30.45;;;;;;;;;;4998160;28;93171;-66
2024/01/14 00:38:57;;;;;;;64.63;29.85;;;;;;;;;;5003473;28;93879;-66
2024/01/14 00:41:23;;;;;;;70.55;30.00;;;;;;;;;;5001980;28;92606;-66
2024/01/14 00:43:50;;;;;;;65.72;30.83;;;;;;;;;;5004023;28;93173;-66
2024/01/14 00:46:16;;;;;;;72.15;30.35;;;;;;;;;;5001044;28;93849;-66
2024/01/14 00:48:42;;;;;;;66.32;29.92;;;;;;;;;;5000386;28;92540;-66
2024/01/14 00:51:09;;;;;;;65.53;29.42;;;;;;;;;;5000495;28;94860;-66
2024/01/14 00:53:35;;;;;;;72.53;31.80;;;;;;;;;;5001127;28;93479;-66
2024/01/14 00:56:02;;;;;;;62.92;28.55;;;;;;;;;;5000094;28;93215;-67
2024/01/14 00:58:28;;;;;;;63.88;28.83;;;;;;;;;;5006038;28;94032;-66
2024/01/14 01:00:54;;;;;;;64.03;29.90;;;;;;;;;;5001628;28;92522;-66
2024/01/14 01:03:21;;;;;;;61.53;28.13;;;;;;;;;;5000036;28;93439;-66
2024/01/14 01:05:47;;;;;;;59.85;27.73;;;;;;;;;;5002278;28;92604;-66
2024/01/14 01:08:14;;;;;;;55.67;25.60;;;;;;;;;;4994427;28;91956;-66
2024/01/14 01:10:41;;;;;;;59.85;27.40;;;;;;;;;;4991789;28;94001;-66
2024/01/14 01:13:07;;;;;;;65.03;27.50;;;;;;;;;;4998385;28;93382;-66
2024/01/14 01:15:34;;;;;;;64.38;27.17;;;;;;;;;;5003362;28;94875;-66
2024/01/14 01:18:00;;;;;;;58.90;27.63;;;;;;;;;;4999429;28;93569;-66
2024/01/14 01:20:27;;;;;;;60.58;27.95;;;;;;;;;;5002907;28;92481;-66
2024/01/14 01:22:53;;;;;;;59.60;27.70;;;;;;;;;;5005123;28;93480;-66
2024/01/14 01:25:19;;;;;;;66.57;28.42;;;;;;;;;;5001913;28;93426;-67
2024/01/14 01:27:46;;;;;;;69.18;31.13;;;;;;;;;;5002179;28;92813;-66
2024/01/14 01:30:12;;;;;;;77.35;31.20;;;;;;;;;;5002614;28;93229;-66
2024/01/14 01:32:39;;;;;;;69.85;30.77;;;;;;;;;;4995951;28;92642;-66
2024/01/14 01:35:06;;;;;;;71.03;30.98;;;;;;;;;;5005920;28;92587;-66
2024/01/14 01:37:33;;;;;;;62.95;28.90;;;;;;;;;;5001250;28;93261;-66
2024/01/14 01:39:59;;;;;;;68.63;28.98;;;;;;;;;;4995334;28;94932;-67
2024/01/14 01:42:25;;;;;;;65.55;30.05;;;;;;;;;;5001496;28;95963;-66
2024/01/14 01:44:52;;;;;;;67.25;30.58;;;;;;;;;;5001250;28;93448;-66
2024/01/14 01:47:19;;;;;;;71.82;31.02;;;;;;;;;;4999552;28;92666;-66
2024/01/14 01:49:46;;;;;;;68.10;30.50;;;;;;;;;;5000811;28;93244;-66
2024/01/14 01:52:13;;;;;;;69.65;29.88;;;;;;;;;;4994184;28;93636;-66
2024/01/14 01:54:40;;;;;;;61.25;27.58;;;;;;;;;;5001957;28;92611;-66
2024/01/14 01:57:08;;;;;;;61.25;28.40;;;;;;;;;;4999535;28;93167;-66
2024/01/14 01:59:35;;;;;;;62.40;29.02;;;;;;;;;;5006371;28;93664;-66
2024/01/14 02:02:03;;;;;;;61.85;27.55;;;;;;;;;;5005988;28;94298;-66
2024/01/14 02:04:29;;;;;;;64.40;27.80;;;;;;;;;;5000165;28;95863;-66
2024/01/14 02:06:57;;;;;;;57.20;26.75;;;;;;;;;;5004301;28;92676;-66
2024/01/14 02:09:24;;;;;;;59.92;25.83;;;;;;;;;;4993645;28;93262;-67
2024/01/14 02:11:50;;;;;;;57.60;27.02;;;;;;;;;;5001783;28;93401;-66
2024/01/14 02:14:17;;;;;;;53.65;24.65;;;;;;;;;;5000096;28;92609;-66
2024/01/14 02:16:43;;;;;;;60.25;26.80;;;;;;;;;;4998096;28;93185;-66
2024/01/14 02:19:10;;;;;;;54.63;26.60;;;;;;;;;;5002523;28;93407;-66
2024/01/14 02:21:41;;;;;;;52.50;25.55;;;;;;;;;;5007468;28;91789;-66
2024/01/14 02:24:22;;;;;;;62.60;26.80;;;;;;;;;;5003688;28;93424;-66
2024/01/14 02:26:49;;;;;;;54.45;24.63;;;;;;;;;;4998837;28;92547;-66
2024/01/14 02:29:15;;;;;;;58.13;26.88;;;;;;;;;;5003782;28;95040;-67
2024/01/14 02:31:42;;;;;;;52.72;25.88;;;;;;;;;;4999316;28;94936;-66
2024/01/14 02:34:09;;;;;;;58.00;26.80;;;;;;;;;;5005749;28;92523;-67
2024/01/14 02:36:35;;;;;;;55.72;25.60;;;;;;;;;;4999896;28;93220;-67
2024/01/14 02:39:02;;;;;;;62.05;27.65;;;;;;;;;;5000558;28;94444;-72
2024/01/14 02:41:28;;;;;;;60.58;27.63;;;;;;;;;;5000750;28;92561;-72
2024/01/14 02:43:54;;;;;;;56.67;25.13;;;;;;;;;;4997660;28;94531;-72
2024/01/14 02:46:21;;;;;;;54.72;25.38;;;;;;;;;;5005110;28;91813;-71
2024/01/14 02:48:47;;;;;;;59.38;26.88;;;;;;;;;;4991619;28;92754;-72
2024/01/14 02:51:14;;;;;;;62.13;27.55;;;;;;;;;;5005396;28;93472;-72
2024/01/14 02:53:40;;;;;;;56.10;27.55;;;;;;;;;;4999482;28;94924;-72
2024/01/14 02:56:07;;;;;;;62.30;27.00;;;;;;;;;;5002183;28;95574;-72
2024/01/14 02:58:33;;;;;;;53.90;26.83;;;;;;;;;;5002953;28;93407;-72
2024/01/14 03:01:00;;;;;;;54.55;27.35;;;;;;;;;;5002443;28;92706;-72
2024/01/14 03:03:26;;;;;;;61.53;26.95;;;;;;;;;;5004997;28;93620;-72
2024/01/14 03:05:53;;;;;;;63.90;27.90;;;;;;;;;;5000877;28;92509;-72
2024/01/14 03:08:20;;;;;;;62.45;28.02;;;;;;;;;;5001331;28;93242;-72
2024/01/14 03:10:46;;;;;;;62.65;28.00;;;;;;;;;;5005111;28;92727;-72
2024/01/14 03:13:15;;;;;;;66.45;29.55;;;;;;;;;;5000844;28;92515;-72
2024/01/14 03:15:43;;;;;;;65.80;30.42;;;;;;;;;;4999744;28;93142;-71
2024/01/14 03:18:09;;;;;;;63.05;28.52;;;;;;;;;;4998459;28;96116;-72
2024/01/14 03:20:36;;;;;;;64.43;27.40;;;;;;;;;;5007798;28;92645;-72
2024/01/14 03:23:03;;;;;;;55.25;25.67;;;;;;;;;;5001251;28;93592;-72
2024/01/14 03:25:29;;;;;;;57.05;26.00;;;;;;;;;;5004987;28;93396;-72
2024/01/14 03:27:56;;;;;;;56.58;26.45;;;;;;;;;;5008508;28;93639;-72
2024/01/14 03:30:23;;;;;;;55.00;27.55;;;;;;;;;;5000611;28;93668;-72
2024/01/14 03:32:49;;;;;;;55.70;27.15;;;;;;;;;;5002000;28;92462;-72
2024/01/14 03:35:16;;;;;;;62.63;28.77;;;;;;;;;;4997408;28;93136;-72
2024/01/14 03:37:42;;;;;;;59.75;27.90;;;;;;;;;;5001871;28;93468;-72
2024/01/14 03:40:10;;;;;;;58.65;28.85;;;;;;;;;;5003303;28;92549;-72
2024/01/14 03:42:36;;;;;;;62.65;29.45;;;;;;;;;;4997146;28;97177;-72
2024/01/14 03:45:03;;;;;;;63.97;28.60;;;;;;;;;;5000232;28;95846;-72
2024/01/14 03:47:30;;;;;;;65.00;29.90;;;;;;;;;;5000661;28;92766;-72
2024/01/14 03:49:56;;;;;;;60.85;30.50;;;;;;;;;;4998816;28;93438;-66
2024/01/14 03:52:22;;;;;;;59.95;30.02;;;;;;;;;;5001256;28;92722;-66
2024/01/14 03:54:49;;;;;;;56.00;28.80;;;;;;;;;;5001384;28;94259;-67
2024/01/14 03:57:15;;;;;;;58.85;27.70;;;;;;;;;;5000596;28;94696;-67
2024/01/14 03:59:41;;;;;;;64.93;30.35;;;;;;;;;;4997902;28;91700;-66
2024/01/14 04:02:08;;;;;;;60.38;29.35;;;;;;;;;;5000395;28;92604;-66
2024/01/14 04:04:34;;;;;;;59.40;28.88;;;;;;;;;;5000826;28;93743;-67
2024/01/14 04:07:01;;;;;;;57.28;29.10;;;;;;;;;;5001579;28;94920;-66
2024/01/14 04:09:27;;;;;;;66.18;30.52;;;;;;;;;;4996665;28;95642;-66
2024/01/14 04:11:54;;;;;;;62.35;28.65;;;;;;;;;;4999850;28;92523;-66
2024/01/14 04:14:20;;;;;;;59.50;27.13;;;;;;;;;;5002577;28;93352;-66
2024/01/14 04:16:46;;;;;;;60.60;28.73;;;;;;;;;;5000397;28;93534;-66
2024/01/14 04:19:13;;;;;;;59.55;29.85;;;;;;;;;;5004651;28;95067;-66
2024/01/14 04:21:39;;;;;;;65.07;29.52;;;;;;;;;;5002963;28;96914;-67
2024/01/14 04:24:06;;;;;;;64.68;30.00;;;;;;;;;;5006795;28;92706;-66
2024/01/14 04:26:32;;;;;;;66.28;29.85;;;;;;;;;;4998224;28;92573;-66
2024/01/14 04:28:58;;;;;;;62.97;30.60;;;;;;;;;;5006235;28;93240;-66
2024/01/14 04:31:25;;;;;;;58.63;29.02;;;;;;;;;;4997172;28;94873;-66
2024/01/14 04:33:52;;;;;;;60.10;29.67;;;;;;;;;;5003125;28;95773;-66
2024/01/14 04:36:18;;;;;;;55.17;29.00;;;;;;;;;;5004727;28;94980;-66
2024/01/14 04:38:45;;;;;;;62.42;29.83;;;;;;;;;;5000015;28;92564;-66
2024/01/14 04:41:11;;;;;;;59.80;29.48;;;;;;;;;;5000103;28;93277;-66
2024/01/14 04:43:38;;;;;;;54.75;28.60;;;;;;;;;;5000171;28;93616;-66
2024/01/14 04:46:06;;;;;;;61.90;28.95;;;;;;;;;;4995939;28;92633;-66
2024/01/14 04:48:33;;;;;;;60.40;30.00;;;;;;;;;;5000627;28;93281;-66
2024/01/14 04:50:59;;;;;;;60.40;29.13;;;;;;;;;;5008652;28;94672;-66
2024/01/14 04:53:26;;;;;;;62.78;29.83;;;;;;;;;;4997937;28;93203;-66
2024/01/14 04:55:52;;;;;;;59.33;29.85;;;;;;;;;;5003040;28;95972;-66
2024/01/14 04:58:19;;;;;;;64.30;31.40;;;;;;;;;;5007106;28;92555;-66
2024/01/14 05:00:45;;;;;;;60.80;29.13;;;;;;;;;;5001202;28;93569;-66
2024/01/14 05:03:12;;;;;;;61.50;30.25;;;;;;;;;;5001824;28;94164;-66
2024/01/14 05:05:38;;;;;;;65.30;31.60;;;;;;;;;;5004549;28;92385;-66
2024/01/14 05:08:05;;;;;;;66.40;31.67;;;;;;;;;;5004862;28;93126;-66
2024/01/14 05:10:31;;;;;;;60.10;29.90;;;;;;;;;;4999702;28;93973;-67
2024/01/14 05:12:57;;;;;;;65.95;31.70;;;;;;;;;;5012349;28;91841;-66
2024/01/14 05:15:24;;;;;;;61.80;28.85;;;;;;;;;;5002864;28;93730;-67
2024/01/14 05:17:50;;;;;;;67.75;31.27;;;;;;;;;;5002209;28;92901;-66
2024/01/14 05:20:17;;;;;;;60.15;29.45;;;;;;;;;;5004600;28;94812;-66
2024/01/14 05:22:43;;;;;;;61.60;30.20;;;;;;;;;;5005555;28;93769;-66
2024/01/14 05:25:10;;;;;;;59.65;27.75;;;;;;;;;;5000727;28;92653;-66
2024/01/14 05:27:36;;;;;;;62.47;30.50;;;;;;;;;;5003594;28;93222;-66
2024/01/14 05:30:03;;;;;;;57.08;28.65;;;;;;;;;;5004684;28;94180;-67
2024/01/14 05:32:30;;;;;;;52.83;27.90;;;;;;;;;;5006250;28;92463;-66
2024/01/14 05:34:56;;;;;;;55.85;28.00;;;;;;;;;;5010153;28;92525;-66
2024/01/14 05:37:23;;;;;;;63.85;29.80;;;;;;;;;;5000442;28;91852;-66
2024/01/14 05:39:49;;;;;;;63.53;29.60;;;;;;;;;;5002889;28;92494;-66
2024/01/14 05:42:15;;;;;;;63.22;31.58;;;;;;;;;;5006941;28;93471;-66
2024/01/14 05:44:42;;;;;;;67.30;32.40;;;;;;;;;;4998289;28;95355;-66
2024/01/14 05:47:08;;;;;;;59.40;30.15;;;;;;;;;;5003830;28;95855;-66
2024/01/14 05:49:35;;;;;;;59.15;28.08;;;;;;;;;;5002165;28;93673;-66
2024/01/14 05:52:01;;;;;;;61.83;28.40;;;;;;;;;;5005133;28;92507;-67
2024/01/14 05:54:28;;;;;;;66.68;30.17;;;;;;;;;;5003079;28;94464;-66
2024/01/14 05:56:54;;;;;;;63.80;29.65;;;;;;;;;;5004163;28;93959;-66
2024/01/14 05:59:20;;;;;;;62.95;30.45;;;;;;;;;;4998169;28;95726;-66
2024/01/14 06:01:47;;;;;;;62.17;31.67;;;;;;;;;;5006361;28;92839;-66
2024/01/14 06:04:13;;;;;;;63.33;31.58;;;;;;;;;;5001444;28;92398;-66
2024/01/14 06:06:40;;;;;;;60.90;29.83;;;;;;;;;;5002214;28;93431;-66
2024/01/14 06:09:07;;;;;;;57.67;28.80;;;;;;;;;;5005777;28;95865;-67
2024/01/14 06:11:33;;;;;;;62.45;29.50;;;;;;;;;;5001370;28;92531;-72
2024/01/14 06:14:00;;;;;;;63.40;29.08;;;;;;;;;;5008876;28;93258;-71
2024/01/14 06:16:26;;;;;;;61.38;29.38;;;;;;;;;;4998306;28;93888;-72
2024/01/14 06:18:54;;;;;;;55.85;28.10;;;;;;;;;;5001968;28;92566;-72
2024/01/14 06:21:20;;;;;;;51.00;26.85;;;;;;;;;;5004244;28;93451;-72
2024/01/14 06:23:47;;;;;;;56.63;28.80;;;;;;;;;;5004486;28;92454;-72
2024/01/14 06:26:17;;;;;;;59.08;28.38;;;;;;;;;;5002731;28;94523;-72
2024/01/14 06:28:43;;;;;;;56.93;28.20;;;;;;;;;;5002710;28;93538;-72
2024/01/14 06:31:13;;;;;;;58.17;28.65;;;;;;;;;;4996165;28;92473;-72
2024/01/14 06:33:40;;;;;;;58.80;29.40;;;;;;;;;;5001990;28;94718;-72
2024/01/14 06:36:06;;;;;;;62.13;29.42;;;;;;;;;;4997151;28;93721;-72
2024/01/14 06:38:34;;;;;;;59.97;28.27;;;;;;;;;;5007562;28;92509;-72
2024/01/14 06:41:00;;;;;;;56.50;29.20;;;;;;;;;;5005279;28;93499;-72
2024/01/14 06:43:36;;;;;;;59.35;29.02;;;;;;;;;;4997601;28;92558;-72
2024/01/14 06:46:03;;;;;;;61.55;31.27;;;;;;;;;;5010885;28;94271;-71
2024/01/14 06:48:29;;;;;;;60.70;29.15;;;;;;;;;;5000668;28;93407;-71
2024/01/14 06:50:56;;;;;;;59.40;29.30;;;;;;;;;;4999031;28;91746;-72
2024/01/14 06:53:22;;;;;;;61.92;28.83;;;;;;;;;;5003784;28;92393;-71
2024/01/14 06:55:48;;;;;;;63.67;30.52;;;;;;;;;;4997066;28;94856;-72
2024/01/14 06:58:15;;;;;;;66.50;31.15;;;;;;;;;;5005534;28;94831;-72
2024/01/14 07:00:42;;;;;;;64.78;32.10;;;;;;;;;;5005494;28;95889;-72
2024/01/14 07:03:09;;;;;;;63.10;31.60;;;;;;;;;;5000145;28;92623;-71
2024/01/14 07:05:36;;;;;;;62.53;30.50;;;;;;;;;;5001344;28;93345;-72
2024/01/14 07:08:04;;;;;;;65.47;30.15;;;;;;;;;;5006247;28;93542;-71
2024/01/14 07:10:31;;;;;;;63.50;30.08;;;;;;;;;;4996132;28;92495;-72
2024/01/14 07:12:57;;;;;;;65.43;31.75;;;;;;;;;;4998155;28;93114;-71
2024/01/14 07:15:24;;;;;;;66.07;31.13;;;;;;;;;;5000334;28;92998;-72
2024/01/14 07:17:50;;;;;;;71.50;31.27;;;;;;;;;;4999444;28;92500;-72
2024/01/14 07:20:24;;;;;;;68.45;31.10;;;;;;;;;;4996863;28;93109;-67
2024/01/14 07:22:52;;;;;;;69.47;31.27;;;;;;;;;;5004973;28;96114;-71
2024/01/14 07:25:18;;;;;;;68.57;30.35;;;;;;;;;;5002336;28;95712;-72
2024/01/14 07:27:44;;;;;;;70.70;31.50;;;;;;;;;;4999261;28;93099;-72
2024/01/14 07:30:11;;;;;;;69.32;31.17;;;;;;;;;;4998994;28;92935;-72
2024/01/14 07:32:37;;;;;;;68.13;32.35;;;;;;;;;;5000434;28;93586;-72
2024/01/14 07:35:04;;;;;;;70.97;30.67;;;;;;;;;;5000596;28;93747;-72
2024/01/14 07:37:33;;;;;;;73.82;32.47;;;;;;;;;;5000694;28;92430;-71
2024/01/14 07:40:00;;;;;;;68.43;29.88;;;;;;;;;;4999768;28;93289;-72
2024/01/14 07:42:26;;;;;;;67.85;32.15;;;;;;;;;;4995900;28;93431;-72
2024/01/14 07:44:53;;;;;;;69.85;29.98;;;;;;;;;;5004327;28;93989;-72
2024/01/14 07:47:20;;;;;;;76.22;33.42;;;;;;;;;;4998260;28;96015;-72
2024/01/14 07:49:49;;;;;;;66.65;30.00;;;;;;;;;;5003555;28;92555;-71
2024/01/14 07:52:16;;;;;;;82.88;32.65;;;;;;;;;;5000115;28;93201;-71
2024/01/14 07:54:43;;;;;;;70.78;31.58;;;;;;;;;;5000529;28;93422;-71
2024/01/14 07:57:09;;;;;;;73.97;31.90;;;;;;;;;;5029542;27;92504;-71
2024/01/14 07:59:36;;;;;;;74.95;33.33;;;;;;;;;;5000117;28;94219;-71
2024/01/14 08:02:02;;;;;;;75.85;32.15;;;;;;;;;;5003540;28;93451;-72
2024/01/14 08:04:29;;;;;;;67.18;31.35;;;;;;;;;;5000325;28;91699;-71
2024/01/14 08:06:55;;;;;;;75.13;32.10;;;;;;;;;;5005548;28;92666;-71
2024/01/14 08:09:22;;;;;;;75.38;33.00;;;;;;;;;;4992717;28;93388;-71
2024/01/14 08:11:48;;;;;;;72.30;30.23;;;;;;;;;;5000610;28;94910;-71
2024/01/14 08:14:15;;;;;;;67.47;31.02;;;;;;;;;;5001162;28;93787;-71
2024/01/14 08:16:41;;;;;;;67.38;31.08;;;;;;;;;;4999177;28;92671;-71
2024/01/14 08:19:07;;;;;;;66.35;32.45;;;;;;;;;;4999003;28;93187;-70
2024/01/14 08:21:34;;;;;;;64.70;30.67;;;;;;;;;;4998588;28;92639;-70
2024/01/14 08:24:03;;;;;;;65.78;31.27;;;;;;;;;;4998803;28;92559;-70
2024/01/14 08:26:30;;;;;;;70.82;32.35;;;;;;;;;;4998331;28;93206;-68
2024/01/14 08:28:56;;;;;;;66.03;30.40;;;;;;;;;;5004768;28;93003;-67
2024/01/14 08:31:25;;;;;;;59.33;28.75;;;;;;;;;;5000158;28;92729;-66
2024/01/14 08:33:52;;;;;;;65.63;28.20;;;;;;;;;;5000878;28;93510;-66
2024/01/14 08:36:18;;;;;;;64.03;28.35;;;;;;;;;;4997220;28;94771;-64
2024/01/14 08:38:45;;;;;;;59.25;26.95;;;;;;;;;;5002387;28;95932;-65
2024/01/14 08:41:11;;;;;;;61.47;27.90;;;;;;;;;;5001605;28;93732;-65
2024/01/14 08:43:37;;;;;;;66.75;29.10;;;;;;;;;;5001097;28;92741;-65
2024/01/14 08:46:04;;;;;;;62.00;27.92;;;;;;;;;;5001366;28;93526;-68
2024/01/14 08:48:30;;;;;;;53.20;26.83;;;;;;;;;;5003375;28;97114;-67
2024/01/14 08:50:59;;;;;;;54.90;26.55;;;;;;;;;;5004069;28;93214;-65
2024/01/14 08:53:25;;;;;;;55.85;26.23;;;;;;;;;;4984834;28;94075;-64
2024/01/14 08:55:52;;;;;;;59.00;26.15;;;;;;;;;;5004097;28;92493;-66
2024/01/14 08:58:18;;;;;;;56.33;27.27;;;;;;;;;;5003830;28;94577;-67
2024/01/14 09:00:44;;;;;;;56.42;27.77;;;;;;;;;;5000106;28;95816;-67
2024/01/14 09:03:11;;;;;;;62.83;26.52;;;;;;;;;;4996704;28;92555;-66
2024/01/14 09:05:38;;;;;;;62.08;27.33;;;;;;;;;;4997872;28;93571;-67
2024/01/14 09:08:05;;;;;;;63.28;27.67;;;;;;;;;;4998398;28;94569;-65
2024/01/14 09:10:31;;;;;;;62.17;27.33;;;;;;;;;;5003604;28;92603;-66
2024/01/14 09:12:57;;;;;;;53.00;25.23;;;;;;;;;;4998562;28;93434;-65
2024/01/14 09:15:24;;;;;;;60.28;26.80;;;;;;;;;;4998310;28;92561;-66
2024/01/14 09:17:51;;;;;;;60.45;26.42;;;;;;;;;;4998786;28;93155;-67
2024/01/14 09:20:18;;;;;;;59.80;27.05;;;;;;;;;;4996603;28;94546;-68
2024/01/14 09:22:44;;;;;;;66.43;27.50;;;;;;;;;;5004105;28;92890;-66
2024/01/14 09:25:11;;;;;;;61.40;27.85;;;;;;;;;;5001296;28;94924;-65
2024/01/14 09:27:38;;;;;;;62.85;27.77;;;;;;;;;;4996638;28;93660;-64
2024/01/14 09:30:05;;;;;;;55.42;27.58;;;;;;;;;;4999287;28;92596;-66
2024/01/14 09:32:32;;;;;;;55.03;25.63;;;;;;;;;;5004020;28;94671;-65
2024/01/14 09:34:58;;;;;;;55.70;25.98;;;;;;;;;;4991101;28;95518;-66
2024/01/14 09:37:24;;;;;;;54.83;27.67;;;;;;;;;;5002314;28;94262;-64
2024/01/14 09:39:51;;;;;;;60.97;27.58;;;;;;;;;;5000389;28;93381;-66
2024/01/14 09:42:44;;;;;;;59.83;26.55;;;;;;;;;;5004930;28;91919;-66
2024/01/14 09:45:11;;;;;;;50.22;25.58;;;;;;;;;;4997776;28;92828;-66
2024/01/14 09:47:38;;;;;;;56.55;26.85;;;;;;;;;;5006262;28;93568;-66
2024/01/14 09:50:06;;;;;;;58.45;26.58;;;;;;;;;;4996613;28;95042;-64
2024/01/14 09:52:34;;;;;;;58.25;28.20;;;;;;;;;;4995035;28;95551;-65
2024/01/14 09:55:00;;;;;;;61.38;29.60;;;;;;;;;;5006137;28;94794;-66
2024/01/14 09:57:28;;;;;;;65.90;29.70;;;;;;;;;;4997949;28;95576;-64
2024/01/14 09:59:55;;;;;;;67.88;29.48;;;;;;;;;;5002942;28;93838;-65
2024/01/14 10:02:22;;;;;;;71.28;28.88;;;;;;;;;;4997531;28;92447;-66
2024/01/14 10:04:48;;;;;;;70.35;29.20;;;;;;;;;;5001999;28;93730;-65
2024/01/14 10:07:15;;;;;;;71.07;30.75;;;;;;;;;;5001583;28;92594;-64
2024/01/14 10:09:42;;;;;;;60.67;29.80;;;;;;;;;;5001802;28;92730;-65
2024/01/14 10:12:09;;;;;;;71.45;29.88;;;;;;;;;;5002377;28;93322;-67
2024/01/14 10:14:35;;;;;;;66.35;29.42;;;;;;;;;;4998505;28;95643;-69
2024/01/14 10:17:02;;;;;;;64.32;28.77;;;;;;;;;;5006031;28;92471;-66
2024/01/14 10:19:29;;;;;;;58.42;28.50;;;;;;;;;;4997072;28;93608;-66
2024/01/14 10:21:56;;;;;;;64.80;28.10;;;;;;;;;;5004915;28;92350;-66
2024/01/14 10:24:48;;;;;;;63.63;28.33;;;;;;;;;;5000662;28;93250;-66
2024/01/14 10:27:15;;;;;;;63.10;27.38;;;;;;;;;;5003458;28;92686;-66
2024/01/14 10:30:02;;;;;;;50.97;25.80;;;;;;;;;;5001094;28;92542;-66
2024/01/14 10:32:31;;;;;;;58.90;26.88;;;;;;;;;;5002202;28;93357;-66
2024/01/14 10:35:17;;;;;;;56.05;26.70;;;;;;;;;;4999568;28;93027;-64
2024/01/14 10:37:45;;;;;;;52.45;24.90;;;;;;;;;;5002420;28;92397;-66
2024/01/14 10:40:12;;;;;;;54.60;26.52;;;;;;;;;;5005139;28;94955;-65
2024/01/14 10:42:38;;;;;;;55.95;26.50;;;;;;;;;;4997894;28;92455;-67
2024/01/14 10:45:05;;;;;;;56.67;26.40;;;;;;;;;;5005290;28;93248;-67
2024/01/14 10:47:36;;;;;;;60.15;27.45;;;;;;;;;;5003235;28;93812;-66
2024/01/14 10:50:03;;;;;;;58.43;28.20;;;;;;;;;;5000725;28;92991;-64
2024/01/14 10:52:34;;;;;;;62.22;27.58;;;;;;;;;;4998952;28;94695;-64
2024/01/14 10:55:09;;;;;;;57.15;26.20;;;;;;;;;;4999571;28;93874;-65
2024/01/14 10:57:36;;;;;;;60.60;27.58;;;;;;;;;;4999779;28;91794;-66
2024/01/14 11:00:04;;;;;;;53.83;25.65;;;;;;;;;;5002838;28;93952;-65
2024/01/14 11:02:32;;;;;;;55.47;25.30;;;;;;;;;;5001112;28;92702;-66
2024/01/14 11:04:59;;;;;;;54.95;25.83;;;;;;;;;;4994589;28;94895;-67
2024/01/14 11:07:26;;;;;;;58.58;25.75;;;;;;;;;;4999986;28;93429;-67
2024/01/14 11:09:53;;;;;;;56.35;26.33;;;;;;;;;;4995717;28;94430;-67
2024/01/14 11:12:19;;;;;;;53.92;25.40;;;;;;;;;;4997171;28;93394;-66
2024/01/14 11:14:55;;;;;;;53.22;25.33;;;;;;;;;;5004282;28;93750;-66
2024/01/14 11:17:24;;;;;;;51.70;25.90;;;;;;;;;;4997299;28;93594;-66
2024/01/14 11:19:50;;;;;;;58.25;27.88;;;;;;;;;;5001896;28;93723;-66
2024/01/14 11:22:19;;;;;;;62.53;27.15;;;;;;;;;;5001897;28;93176;-66
2024/01/14 11:25:00;;;;;;;57.63;27.00;;;;;;;;;;5001441;28;92559;-67
2024/01/14 11:27:27;;;;;;;59.67;28.15;;;;;;;;;;4997950;28;93484;-67
2024/01/14 11:29:54;;;;;;;65.50;30.00;;;;;;;;;;4994959;28;96349;-66
2024/01/14 11:32:20;;;;;;;61.22;28.88;;;;;;;;;;5000853;28;95525;-67
2024/01/14 11:34:47;;;;;;;67.85;29.77;;;;;;;;;;4997088;28;93527;-66
2024/01/14 11:37:35;;;;;;;62.10;29.55;;;;;;;;;;5001022;28;92485;-66
2024/01/14 11:40:08;;;;;;;68.55;31.52;;;;;;;;;;5001743;28;94289;-67
2024/01/14 11:42:35;;;;;;;68.53;30.65;;;;;;;;;;4992322;28;97738;-66
2024/01/14 11:45:02;;;;;;;66.05;30.67;;;;;;;;;;5003802;28;94334;-66
2024/01/14 11:47:41;;;;;;;64.47;29.40;;;;;;;;;;4999060;28;92734;-66
2024/01/14 11:50:08;;;;;;;66.65;29.55;;;;;;;;;;5003661;28;92902;-66
2024/01/14 11:52:35;;;;;;;65.63;29.05;;;;;;;;;;4996081;28;93501;-66
2024/01/14 11:55:05;;;;;;;64.68;29.70;;;;;;;;;;4995688;28;97187;-66
2024/01/14 11:57:31;;;;;;;81.95;31.92;;;;;;;;;;4998462;28;93660;-66
2024/01/14 11:59:58;;;;;;;64.43;29.17;;;;;;;;;;4993667;28;93343;-67
2024/01/14 12:02:24;;;;;;;70.22;29.40;;;;;;;;;;4999406;28;93198;-71
2024/01/14 12:04:51;;;;;;;67.63;29.65;;;;;;;;;;4996626;28;92739;-71
2024/01/14 12:07:29;;;;;;;62.88;27.67;;;;;;;;;;5003148;28;94269;-71
2024/01/14 12:09:55;;;;;;;65.40;29.67;;;;;;;;;;4998007;28;92476;-70
2024/01/14 12:12:24;;;;;;;75.20;28.65;;;;;;;;;;4996029;28;94368;-71
2024/01/14 12:14:51;;;;;;;66.78;29.75;;;;;;;;;;4996474;28;93896;-71
2024/01/14 12:17:17;;;;;;;62.50;27.50;;;;;;;;;;4994311;28;92572;-70
2024/01/14 12:19:54;;;;;;;66.70;28.67;;;;;;;;;;4999154;28;94886;-71
2024/01/14 12:22:21;;;;;;;62.08;27.95;;;;;;;;;;4997298;28;93729;-71
2024/01/14 12:24:47;;;;;;;63.03;26.88;;;;;;;;;;4989927;28;92866;-71
2024/01/14 12:27:14;;;;;;;69.63;28.52;;;;;;;;;;5003900;28;93590;-69
2024/01/14 12:29:41;;;;;;;64.10;27.65;;;;;;;;;;5001819;28;93428;-70
2024/01/14 12:32:07;;;;;;;55.72;26.48;;;;;;;;;;4998912;28;93528;-71
2024/01/14 12:34:37;;;;;;;49.22;23.83;;;;;;;;;;4999442;28;93400;-72
2024/01/14 12:37:03;;;;;;;44.22;22.35;;;;;;;;;;4999224;28;91700;-68
2024/01/14 12:39:30;;;;;;;56.38;25.50;;;;;;;;;;5002521;28;92510;-69
2024/01/14 12:41:56;;;;;;;43.53;21.63;;;;;;;;;;4997048;28;93519;-69
2024/01/14 12:44:24;;;;;;;45.55;20.90;;;;;;;;;;4998004;28;94931;-70
2024/01/14 12:47:04;;;;;;;47.83;22.88;;;;;;;;;;4994635;28;95480;-70
2024/01/14 12:49:30;;;;;;;44.10;22.25;;;;;;;;;;4988640;28;93694;-71
2024/01/14 12:52:07;;;;;;;48.20;23.75;;;;;;;;;;5006159;28;92546;-73
2024/01/14 12:54:34;;;;;;;49.20;22.88;;;;;;;;;;4998895;28;93373;-72
2024/01/14 12:57:06;;;;;;;49.75;23.35;;;;;;;;;;4996329;28;92964;-72
2024/01/14 12:59:46;;;;;;;51.10;23.42;;;;;;;;;;4996352;28;93527;-72
2024/01/14 13:02:12;;;;;;;50.35;23.15;;;;;;;;;;4996732;28;92706;-71
2024/01/14 13:04:38;;;;;;;54.72;24.70;;;;;;;;;;4999264;28;92507;-72
2024/01/14 13:07:05;;;;;;;49.55;23.83;;;;;;;;;;5000693;28;93499;-71
2024/01/14 13:09:38;;;;;;;50.25;24.05;;;;;;;;;;4993620;28;95771;-72
2024/01/14 13:12:05;;;;;;;53.55;24.65;;;;;;;;;;5002885;28;92532;-67
2024/01/14 13:14:32;;;;;;;54.22;25.02;;;;;;;;;;5001500;28;93747;-67
2024/01/14 13:16:58;;;;;;;52.65;24.60;;;;;;;;;;4999952;28;93300;-67
2024/01/14 13:19:25;;;;;;;59.42;26.98;;;;;;;;;;5006322;28;94421;-66
2024/01/14 13:21:51;;;;;;;61.75;26.33;;;;;;;;;;5000460;28;93774;-67
2024/01/14 13:24:18;;;;;;;55.38;26.20;;;;;;;;;;4998523;28;92513;-67
2024/01/14 13:26:44;;;;;;;63.22;28.75;;;;;;;;;;4999654;28;93568;-67
2024/01/14 13:29:10;;;;;;;57.85;27.25;;;;;;;;;;5006079;28;93440;-67
2024/01/14 13:31:38;;;;;;;46.35;23.63;;;;;;;;;;4997188;28;92926;-67
2024/01/14 13:34:06;;;;;;;56.67;26.08;;;;;;;;;;5004277;28;94952;-67
2024/01/14 13:36:33;;;;;;;52.33;23.77;;;;;;;;;;4997608;28;92673;-67
2024/01/14 13:39:01;;;;;;;46.72;22.13;;;;;;;;;;5004420;28;93666;-67
2024/01/14 13:41:28;;;;;;;51.75;24.08;;;;;;;;;;5000283;28;93269;-67
2024/01/14 13:43:54;;;;;;;46.45;22.25;;;;;;;;;;4998097;28;94266;-67
2024/01/14 13:46:41;;;;;;;50.05;23.38;;;;;;;;;;4998785;28;92834;-66
2024/01/14 13:49:07;;;;;;;40.95;20.23;;;;;;;;;;5006586;28;93720;-67
2024/01/14 13:51:34;;;;;;;44.20;21.38;;;;;;;;;;5003345;28;91778;-68
2024/01/14 13:54:01;;;;;;;47.67;22.00;;;;;;;;;;5001979;28;92528;-67
2024/01/14 13:56:39;;;;;;;45.45;22.60;;;;;;;;;;5004987;28;93275;-67
2024/01/14 13:59:08;;;;;;;42.35;21.38;;;;;;;;;;5003653;28;95070;-67
2024/01/14 14:01:34;;;;;;;42.53;21.65;;;;;;;;;;5003855;28;93699;-67
2024/01/14 14:04:01;;;;;;;52.90;23.42;;;;;;;;;;4997060;28;92729;-67
2024/01/14 14:06:29;;;;;;;49.58;23.85;;;;;;;;;;5002032;28;93538;-67
2024/01/14 14:08:56;;;;;;;48.10;21.40;;;;;;;;;;5002458;28;94611;-68
2024/01/14 14:11:22;;;;;;;53.38;23.60;;;;;;;;;;5003307;28;92513;-68
2024/01/14 14:13:49;;;;;;;47.22;23.10;;;;;;;;;;5007897;28;93528;-67
2024/01/14 14:16:15;;;;;;;50.40;22.80;;;;;;;;;;5005345;28;92659;-68
2024/01/14 14:19:01;;;;;;;47.55;24.23;;;;;;;;;;5003983;28;92524;-68